Flight Track Log - Related Links

Times and Time Zones

All times are in EDT time to prevent confusion due to time zone crossing. See the N63BD flight status page for this flight to view local times or setup timezone preferences in your user account.

Time Position Orientation Groundspeed Altitude Reporting Facility
EDT Latitude Longitude Course Direction KTS MPH feet Rate Location/Type
Wed 06:05:27 PM 37.1547 -120.2636 142° Southeast 144 166 6,600  Level Oakland Center
Wed 06:06:28 PM 37.1225 -120.2319 142° Southeast 149 171 6,800 146 Climbing Oakland Center
Wed 06:07:30 PM 37.0872 -120.1992 143° Southeast 149 171 6,900 146 Climbing Oakland Center
Wed 06:08:31 PM 37.0547 -120.1694 144° Southeast 148 170 7,100 197 Climbing Oakland Center
Wed 06:09:32 PM 37.0211 -120.1375 143° Southeast 145 167 7,300 197 Climbing Oakland Center
Wed 06:10:33 PM 36.9892 -120.1072 143° Southeast 140 161 7,500 195 Climbing Oakland Center
Wed 06:11:35 PM 36.9572 -120.0786 144° Southeast 141 162 7,700 195 Climbing Oakland Center
Wed 06:12:36 PM 36.9253 -120.0486 143° Southeast 144 166 7,900 197 Climbing Oakland Center
Wed 06:13:37 PM 36.8928 -120.0183 143° Southeast 145 167 8,100 197 Climbing Oakland Center
Wed 06:14:38 PM 36.8600 -119.9878 143° Southeast 147 169 8,300 195 Climbing Oakland Center
Wed 06:15:40 PM 36.8269 -119.9569 143° Southeast 148 170 8,500 195 Climbing Oakland Center
Wed 06:16:41 PM 36.7939 -119.9256 143° Southeast 149 171 8,700 197 Climbing Oakland Center
Wed 06:17:42 PM 36.7603 -119.8950 144° Southeast 150 173 8,900 197 Climbing Oakland Center
Wed 06:18:43 PM 36.7275 -119.8650 144° Southeast 147 169 9,100 195 Climbing Oakland Center
Wed 06:19:45 PM 36.6953 -119.8350 143° Southeast 145 167 9,300 244 Climbing Oakland Center
Wed 06:20:46 PM 36.6564 -119.8000 144° Southeast 144 166 9,600 246 Climbing Oakland Center
Wed 06:21:47 PM 36.6242 -119.7700 143° Southeast 145 167 9,800 197 Climbing Oakland Center
Wed 06:22:48 PM 36.5903 -119.7397 144° Southeast 148 170 10,000 195 Climbing Oakland Center
Wed 06:23:50 PM 36.5564 -119.7089 144° Southeast 151 174 10,200 195 Climbing Oakland Center
Wed 06:24:51 PM 36.5231 -119.6775 143° Southeast 151 174 10,400 197 Climbing Oakland Center
Wed 06:25:52 PM 36.4878 -119.6456 144° Southeast 156 180 10,600 98 Climbing Oakland Center
Wed 06:26:54 PM 36.4511 -119.6128 144° Southeast 161 185 10,600  Level Oakland Center
Wed 06:27:55 PM 36.4147 -119.5794 144° Southeast 163 188 10,600  Level Oakland Center
Wed 06:28:56 PM 36.3775 -119.5458 144° Southeast 164 189 10,600  Level Oakland Center
Wed 06:29:57 PM 36.3411 -119.5125 144° Southeast 163 188 10,600  Level Oakland Center
Wed 06:30:59 PM 36.2969 -119.4725 144° Southeast 164 189 10,600 49 Level Oakland Center
Wed 06:32:00 PM 36.2608 -119.4394 144° Southeast 162 186 10,700 98 Climbing Oakland Center
Wed 06:33:01 PM 36.2256 -119.4075 144° Southeast 158 182 10,800 146 Climbing Oakland Center
Wed 06:34:03 PM 36.1903 -119.3761 144° Southeast 156 180 11,000 195 Climbing Oakland Center
Wed 06:35:04 PM 36.1569 -119.3456 143° Southeast 151 174 11,200 197 Climbing Oakland Center
Wed 06:36:05 PM 36.1228 -119.3147 144° Southeast 152 175 11,400 195 Climbing Oakland Center
Wed 06:37:07 PM 36.0917 -119.2772 136° Southeast 156 180 11,600 195 Climbing Oakland Center
Wed 06:38:08 PM 36.0603 -119.2361 133° Southeast 165 190 11,800 98 Climbing Oakland Center
Wed 06:39:09 PM 36.0236 -119.1925 136° Southeast 181 208 11,800 -98 Level Oakland Center
Wed 06:40:10 PM 35.9803 -119.1611 150° Southeast 181 208 11,600 -98 Descending Oakland Center
Wed 06:41:12 PM 35.9297 -119.1211 147° Southeast 179 206 11,600  Level Oakland Center
Wed 06:42:13 PM 35.8875 -119.0892 148° Southeast 179 206 11,600  Level Oakland Center
Wed 06:43:14 PM 35.8467 -119.0572 148° Southeast 177 204 11,600  Level Oakland Center
Wed 06:44:16 PM 35.8106 -119.0183 139° Southeast 178 205 11,600  Level Oakland Center
Wed 06:45:17 PM 35.7881 -118.9572 114° Southeast 191 220 11,600  Level Oakland Center
Wed 06:46:18 PM 35.7661 -118.8981 115° Southeast 190 219 11,600  Level Oakland Center
Wed 06:47:20 PM 35.7494 -118.8339 108° East 194 223 11,600  Level Oakland Center
Wed 06:48:21 PM 35.7342 -118.7714 107° East 194 223 11,600  Level Oakland Center
Wed 06:49:22 PM 35.7175 -118.7075 108° East 195 224 11,600  Level Oakland Center
Wed 06:50:24 PM 35.7069 -118.6269 99° East 200 230 11,600  Level Oakland Center
Wed 06:51:25 PM 35.7158 -118.5594 81° East 200 230 11,600  Level Oakland Center
Wed 06:52:26 PM 35.7228 -118.4956 82° East 196 226 11,600  Level Oakland Center
Wed 06:53:28 PM 35.7303 -118.4247 83° East 201 231 11,600 -42 Level Oakland Center
Wed 06:54:49 PM 35.7375 -118.3447 84° East 191 220 11,500 -42 Descending Los Angeles Center
Wed 06:55:51 PM 35.7453 -118.2775 82° East 195 224 11,500  Level Los Angeles Center
Wed 06:56:53 PM 35.7567 -118.1886 81° East 215 247 11,500  Level Los Angeles Center
Wed 06:57:55 PM 35.7636 -118.1144 83° East 218 251 11,500  Level Los Angeles Center
Wed 06:58:58 PM 35.7711 -118.0444 82° East 210 242 11,500 -48 Level Los Angeles Center
Wed 07:00:00 PM 35.7814 -117.9731 80° East 211 243 11,400  Descending Los Angeles Center
Wed 07:01:02 PM 35.7911 -117.9058 80° East 203 234 11,500 48 Climbing Los Angeles Center
Wed 07:02:04 PM 35.7961 -117.8289 85° East 216 249 11,500  Level Los Angeles Center
Wed 07:03:06 PM 35.8083 -117.7544 79° East 204 235 11,500  Level Los Angeles Center
Wed 07:04:08 PM 35.8200 -117.6900 77° East 194 223 11,500  Level Los Angeles Center
Wed 07:05:10 PM 35.8278 -117.6183 82° East 200 230 11,500  Level Los Angeles Center
Wed 07:06:12 PM 35.8347 -117.5572 82° East 195 224 11,500  Level Los Angeles Center
Wed 07:07:14 PM 35.8331 -117.4914 92° East 191 220 11,500  Level Los Angeles Center
Wed 07:08:16 PM 35.8333 -117.4211 90° East 198 228 11,500  Level Los Angeles Center
Wed 07:09:18 PM 35.8347 -117.3425 89° East 196 226 11,500  Level Los Angeles Center
Wed 07:10:20 PM 35.8292 -117.2717 96° East 199 229 11,500 -48 Level Los Angeles Center
Wed 07:11:22 PM 35.8228 -117.1997 96° East 205 236 11,400 -48 Descending Los Angeles Center
Wed 07:12:24 PM 35.8175 -117.1347 96° East 201 231 11,400 -48 Level Los Angeles Center
Wed 07:13:26 PM 35.8083 -117.0611 99° East 205 236 11,300 -484 Descending Los Angeles Center
Wed 07:14:28 PM 35.8003 -116.9953 99° East 204 235 10,400 -726 Descending Los Angeles Center
Wed 07:15:30 PM 35.7969 -116.9353 94° East 193 222 9,800  Descending Los Angeles Center
Wed 07:16:33 PM 35.7844 -116.8647 102° East 188 216 10,400 432 Climbing Los Angeles Center
Wed 07:17:35 PM 35.7592 -116.8047 117° Southeast 185 213 10,700 97 Climbing Los Angeles Center
Wed 07:18:37 PM 35.7489 -116.7425 101° East 192 221 10,600 -677 Descending Los Angeles Center
Wed 07:19:39 PM 35.7147 -116.7014 136° Southeast 179 206 9,300 -1,113 Descending Los Angeles Center
Wed 07:20:41 PM 35.6792 -116.6511 131° Southeast 179 206 8,300 -19 Descending Los Angeles Center
Wed 07:22:00 PM 35.6580 -116.5837 111° Southeast  Level FlightAware Approximate
Wed 07:29:00 PM 35.5154 -116.2432 117° Southeast  Level FlightAware Approximate
Wed 07:30:00 PM 35.4951 -116.1946 117° Southeast  Level FlightAware Approximate
Wed 07:31:00 PM 35.4749 -116.1460 117° Southeast  Level FlightAware Approximate
Wed 07:32:00 PM 35.4546 -116.0974 117° Southeast  Level FlightAware Approximate
Wed 07:33:00 PM 35.4342 -116.0488 117° Southeast  Level FlightAware Approximate
Wed 07:34:00 PM 35.4139 -116.0002 117° Southeast  Level FlightAware Approximate
Wed 07:35:00 PM 35.3935 -115.9517 117° Southeast  Level FlightAware Approximate
Wed 07:36:00 PM 35.3732 -115.9032 117° Southeast  Level FlightAware Approximate
Wed 07:37:00 PM 35.3528 -115.8547 117° Southeast  Level FlightAware Approximate
Wed 07:38:00 PM 35.3323 -115.8062 117° Southeast  Level FlightAware Approximate
Wed 07:39:00 PM 35.3119 -115.7578 117° Southeast  Level FlightAware Approximate
Wed 07:40:00 PM 35.2914 -115.7094 117° Southeast  Level FlightAware Approximate
Wed 07:41:00 PM 35.2710 -115.6610 117° Southeast  Level FlightAware Approximate
Wed 07:42:00 PM 35.2505 -115.6126 117° Southeast  Level FlightAware Approximate
Wed 07:43:00 PM 35.2300 -115.5643 117° Southeast  Level FlightAware Approximate
Wed 07:44:00 PM 35.2094 -115.5160 117° Southeast  Level FlightAware Approximate
Wed 07:45:00 PM 35.1889 -115.4677 117° Southeast  Level FlightAware Approximate
Wed 07:46:00 PM 35.1683 -115.4194 118° Southeast  Level FlightAware Approximate
Wed 07:47:00 PM 35.1477 -115.3712 118° Southeast  Level FlightAware Approximate
Wed 07:48:00 PM 35.1271 -115.3230 118° Southeast  Level FlightAware Approximate
Wed 07:49:00 PM 35.1065 -115.2748 118° Southeast  Level FlightAware Approximate
Wed 07:50:00 PM 35.0858 -115.2266 118° Southeast  Level FlightAware Approximate
Wed 07:51:00 PM 35.0652 -115.1785 118° Southeast  Level FlightAware Approximate
Wed 07:52:00 PM 35.0445 -115.1304 118° Southeast  Level FlightAware Approximate
Wed 07:53:00 PM 35.0238 -115.0823 118° Southeast  Level FlightAware Approximate
Wed 07:54:00 PM 35.0031 -115.0342 118° Southeast  Level FlightAware Approximate
Wed 07:55:00 PM 34.9823 -114.9862 118° Southeast  Level FlightAware Approximate
Wed 07:56:00 PM 34.9616 -114.9382 118° Southeast  Level FlightAware Approximate
Wed 07:57:00 PM 34.9408 -114.8902 118° Southeast  Level FlightAware Approximate
Wed 07:58:00 PM 34.9200 -114.8422 118° Southeast  Level FlightAware Approximate
Wed 07:59:00 PM 34.8992 -114.7943 118° Southeast  Level FlightAware Approximate
Wed 08:00:00 PM 34.8783 -114.7463 118° Southeast  Level FlightAware Approximate
Wed 08:01:00 PM 34.8575 -114.6984 118° Southeast  Level FlightAware Approximate
Wed 08:02:00 PM 34.8366 -114.6506 118° Southeast  Level FlightAware Approximate
Wed 08:03:00 PM 34.8157 -114.6027 118° Southeast  Level FlightAware Approximate
Wed 08:04:00 PM 34.7948 -114.5549 118° Southeast  Level FlightAware Approximate
Wed 08:05:00 PM 34.7739 -114.5071 118° Southeast  Level FlightAware Approximate
Wed 08:06:00 PM 34.7529 -114.4593 118° Southeast  Level FlightAware Approximate
Wed 08:07:00 PM 34.7319 -114.4116 118° Southeast  Level FlightAware Approximate
Wed 08:08:00 PM 34.7109 -114.3638 118° Southeast  Level FlightAware Approximate
Wed 08:09:00 PM 34.6899 -114.3161 118° Southeast  Level FlightAware Approximate
Wed 08:10:00 PM 34.6689 -114.2685 118° Southeast  Level FlightAware Approximate
Wed 08:11:00 PM 34.6479 -114.2208 118° Southeast  Level FlightAware Approximate
Wed 08:12:00 PM 34.6268 -114.1732 118° Southeast  Level FlightAware Approximate
Wed 08:13:00 PM 34.6058 -114.1256 118° Southeast  Level FlightAware Approximate
Wed 08:14:00 PM 34.5846 -114.0780 118° Southeast  Level FlightAware Approximate
Wed 08:15:00 PM 34.5635 -114.0304 118° Southeast  Level FlightAware Approximate
Wed 08:16:00 PM 34.5426 -113.9827 117° Southeast  Level FlightAware Approximate
Wed 08:17:00 PM 34.5221 -113.9348 117° Southeast  Level FlightAware Approximate
Wed 08:18:00 PM 34.5016 -113.8869 117° Southeast  Level FlightAware Approximate
Wed 08:19:00 PM 34.4810 -113.8391 117° Southeast  Level FlightAware Approximate
Wed 08:20:00 PM 34.4605 -113.7912 118° Southeast  Level FlightAware Approximate
Wed 08:21:00 PM 34.4399 -113.7434 118° Southeast  Level FlightAware Approximate
Wed 08:22:00 PM 34.4193 -113.6956 118° Southeast  Level FlightAware Approximate
Wed 08:23:00 PM 34.3986 -113.6478 118° Southeast  Level FlightAware Approximate
Wed 08:24:00 PM 34.3780 -113.6000 118° Southeast  Level FlightAware Approximate
Wed 08:24:01 PM 35.7503 -115.4683 118° Southeast 137 158 8,100  Level Los Angeles Center
Wed 08:25:00 PM 34.3573 -113.5523 118° Southeast  Level FlightAware Approximate
Wed 08:25:02 PM 35.7306 -115.4272 121° Southeast 137 158 8,300  Level Los Angeles Center
Wed 08:26:00 PM 34.3367 -113.5046 118° Southeast  Level FlightAware Approximate
Wed 08:26:03 PM 35.7100 -115.3917 125° Southeast 130 150 8,500  Level Los Angeles Center
Wed 08:26:18 PM 35.7058 -115.3833 122° Southeast 134 154 8,500 234 Level Los Angeles Center
Wed 08:27:00 PM 34.3160 -113.4569 118° Southeast  Level FlightAware Approximate
Wed 08:27:20 PM 35.6783 -115.3400 128° Southeast 146 168 8,800  Level Los Angeles Center
Wed 08:28:00 PM 34.2952 -113.4092 118° Southeast  Level FlightAware Approximate
Wed 08:28:22 PM 35.6511 -115.2894 124° Southeast 166 191 9,000  Level Los Angeles Center
Wed 08:29:00 PM 34.2745 -113.3616 118° Southeast  Level FlightAware Approximate
Wed 08:29:25 PM 35.6189 -115.2300 124° Southeast 173 199 9,200  Level Los Angeles Center
Wed 08:30:39 PM 35.5908 -115.1806 125° Southeast 160 184 9,400 176 Climbing Los Angeles Center
Wed 08:31:41 PM 35.5689 -115.1422 125° Southeast 149 171 9,600 194 Climbing Los Angeles Center
Wed 08:32:43 PM 35.5486 -115.1058 124° Southeast 138 159 9,800 97 Climbing Los Angeles Center
Wed 08:33:45 PM 35.5294 -115.0542 114° Southeast 149 171 9,800 -48 Level Los Angeles Center
Wed 08:34:47 PM 35.5028 -115.0050 124° Southeast 166 191 9,700 -48 Descending Los Angeles Center
Wed 08:35:50 PM 35.4717 -114.9506 125° Southeast 167 192 9,700 144 Level Los Angeles Center
Wed 08:36:52 PM 35.4481 -114.9083 124° Southeast 159 183 10,000 145 Climbing Los Angeles Center
Wed 08:37:54 PM 35.4239 -114.8653 125° Southeast 154 177 10,000  Level Los Angeles Center
Wed 08:38:56 PM 35.3969 -114.8217 127° Southeast 159 183 10,000  Level Los Angeles Center
Wed 08:39:58 PM 35.3706 -114.7778 126° Southeast 159 183 10,000 -48 Level Los Angeles Center
Wed 08:41:00 PM 35.3469 -114.7372 126° Southeast 151 174 9,900  Descending Los Angeles Center
Wed 08:42:02 PM 35.3175 -114.6864 125° Southeast 151 174 10,000 -145 Climbing Los Angeles Center
Wed 08:43:04 PM 35.2903 -114.6403 126° Southeast 164 189 9,600 -194 Descending Los Angeles Center
Wed 08:44:06 PM 35.2661 -114.5972 124° Southeast 157 181 9,600  Level Los Angeles Center
Wed 08:45:08 PM 35.2417 -114.5572 127° Southeast 149 171 9,600  Level Los Angeles Center
Wed 08:46:10 PM 35.2181 -114.5156 125° Southeast 149 171 9,600  Level Los Angeles Center
Wed 08:47:12 PM 35.1939 -114.4747 126° Southeast 149 171 9,600  Level Los Angeles Center
Wed 08:48:15 PM 35.1653 -114.4247 125° Southeast 150 173 9,600  Level Los Angeles Center
Wed 08:49:17 PM 35.1389 -114.3828 128° Southeast 154 177 9,600  Level Los Angeles Center
Wed 08:50:19 PM 35.1139 -114.3397 125° Southeast 155 178 9,600  Level Los Angeles Center
Wed 08:51:21 PM 35.0903 -114.2994 126° Southeast 149 171 9,600  Level Los Angeles Center
Wed 08:52:23 PM 35.0667 -114.2581 125° Southeast 149 171 9,600  Level Los Angeles Center
Wed 08:53:25 PM 35.0419 -114.2178 127° Southeast 148 170 9,600  Level Los Angeles Center
Wed 08:54:27 PM 35.0128 -114.1692 126° Southeast 149 171 9,600  Level Los Angeles Center
Wed 08:55:29 PM 34.9881 -114.1286 127° Southeast 150 173 9,600  Level Los Angeles Center
Wed 08:56:31 PM 34.9639 -114.0867 125° Southeast 151 174 9,600  Level Los Angeles Center
Wed 08:57:33 PM 34.9386 -114.0475 128° Southeast 148 170 9,600  Level Los Angeles Center
Wed 08:58:35 PM 34.9158 -114.0058 124° Southeast 147 169 9,600  Level Los Angeles Center
Wed 08:59:37 PM 34.8908 -113.9642 126° Southeast 151 174 9,600  Level Los Angeles Center
Wed 09:00:39 PM 34.8642 -113.9214 127° Southeast 153 176 9,600  Level Los Angeles Center
Wed 09:01:41 PM 34.8397 -113.8792 125° Southeast 153 176 9,600 53 Level Los Angeles Center
Wed 09:02:33 PM 34.8158 -113.8392 126° Southeast 148 170 9,700 53 Climbing Albuquerque Center
Wed 09:03:35 PM 34.7919 -113.8011 127° Southeast 144 166 9,700  Level Albuquerque Center
Wed 09:04:36 PM 34.7692 -113.7614 125° Southeast 144 166 9,700  Level Albuquerque Center
Wed 09:05:38 PM 34.7439 -113.7200 127° Southeast 150 173 9,700  Level Albuquerque Center
Wed 09:06:39 PM 34.7183 -113.6775 126° Southeast 153 176 9,700  Level Albuquerque Center
Wed 09:07:41 PM 34.6881 -113.6275 126° Southeast 155 178 9,700  Level Albuquerque Center
Wed 09:08:42 PM 34.6642 -113.5872 126° Southeast 153 176 9,700  Level Albuquerque Center
Wed 09:09:44 PM 34.6403 -113.5494 128° Southeast 149 171 9,700  Level Albuquerque Center
Wed 09:10:45 PM 34.6153 -113.5108 128° Southeast 144 166 9,700  Level Albuquerque Center
Wed 09:11:47 PM 34.5939 -113.4719 124° Southeast 143 165 9,700  Level Albuquerque Center
Wed 09:12:49 PM 34.5711 -113.4353 127° Southeast 139 160 9,700  Level Albuquerque Center
Wed 09:13:50 PM 34.5439 -113.3906 126° Southeast 138 159 9,700  Level Albuquerque Center
Wed 09:14:52 PM 34.5203 -113.3522 127° Southeast 140 161 9,700  Level Albuquerque Center
Wed 09:15:53 PM 34.4969 -113.3125 125° Southeast 143 165 9,700  Level Albuquerque Center
Wed 09:16:55 PM 34.4750 -113.2769 127° Southeast 140 161 9,700  Level Albuquerque Center
Wed 09:17:56 PM 34.4533 -113.2414 126° Southeast 136 157 9,700  Level Albuquerque Center
Wed 09:18:58 PM 34.4278 -113.2017 128° Southeast 137 158 9,700  Level Albuquerque Center
Wed 09:20:00 PM 34.4028 -113.1650 130° Southeast 140 161 9,700  Level Albuquerque Center
Wed 09:21:01 PM 34.3772 -113.1156 122° Southeast 153 176 9,700  Level Albuquerque Center
Wed 09:22:03 PM 34.3511 -113.0753 128° Southeast 153 176 9,700  Level Albuquerque Center
Wed 09:23:04 PM 34.3269 -113.0350 126° Southeast 149 171 9,700  Level Albuquerque Center
Wed 09:24:06 PM 34.2969 -112.9858 126° Southeast 150 173 9,700  Level Albuquerque Center
Wed 09:25:07 PM 34.2719 -112.9456 127° Southeast 149 171 9,700 -113 Level Albuquerque Center
Wed 09:25:52 PM 34.2519 -112.9164 130° Southeast 150 173 9,500  Descending Albuquerque Center
Wed 09:26:09 PM 34.2472 -112.9047 116° Southeast 149 171 9,700  Climbing Albuquerque Center
Wed 09:26:41 PM 34.2333 -112.8825 127° Southeast 150 173 9,500  Descending Albuquerque Center
Wed 09:27:10 PM 34.2219 -112.8650 128° Southeast 150 173 9,700  Climbing Albuquerque Center
Wed 09:27:35 PM 34.2103 -112.8472 128° Southeast 151 174 9,500  Descending Albuquerque Center
Wed 09:28:12 PM 34.1964 -112.8244 126° Southeast 151 174 9,700 -98 Climbing Albuquerque Center
Wed 09:28:36 PM 34.1839 -112.8053 128° Southeast 152 175 9,400 -387 Descending Albuquerque Center
Wed 09:29:14 PM 34.1711 -112.7831 125° Southeast 151 174 9,300 -197 Descending Albuquerque Center
Wed 09:29:37 PM 34.1569 -112.7606 127° Southeast 158 182 9,200 -295 Descending Albuquerque Center
Wed 09:30:15 PM 34.1450 -112.7408 126° Southeast 155 178 9,000 -300 Descending Albuquerque Center
Wed 09:30:37 PM 34.1328 -112.7206 126° Southeast 156 180 8,900 -290 Descending Albuquerque Center
Wed 09:31:17 PM 34.1133 -112.6908 128° Southeast 157 181 8,700 -295 Descending Albuquerque Center
Wed 09:31:38 PM 34.1042 -112.6792 133° Southeast 156 180 8,600 -197 Descending Albuquerque Center
Wed 09:32:18 PM 34.0875 -112.6486 123° Southeast 156 180 8,500 -197 Descending Albuquerque Center
Wed 09:32:39 PM 34.0797 -112.6364 128° Southeast 153 176 8,400 -290 Descending Albuquerque Center
Wed 09:33:20 PM 34.0633 -112.6092 126° Southeast 149 171 8,200 -300 Descending Albuquerque Center
Wed 09:33:39 PM 34.0533 -112.5944 129° Southeast 148 170 8,100 -197 Descending Albuquerque Center
Wed 09:34:21 PM 34.0386 -112.5694 125° Southeast 147 169 8,000 -197 Descending Albuquerque Center
Wed 09:34:40 PM 34.0297 -112.5569 131° Southeast 147 169 7,900 -290 Descending Albuquerque Center
Wed 09:35:23 PM 34.0139 -112.5308 126° Southeast 146 168 7,700 -231 Descending Albuquerque Center
Wed 09:36:24 PM 33.9903 -112.4922 126° Southeast 144 166 7,500 -244 Descending Albuquerque Center
Wed 09:37:26 PM 33.9658 -112.4542 128° Southeast 144 166 7,200 -244 Descending Albuquerque Center
Wed 09:38:27 PM 33.9425 -112.4139 125° Southeast 146 168 7,000 -244 Descending Albuquerque Center
Wed 09:39:29 PM 33.9183 -112.3600 118° Southeast 153 176 6,700 -293 Descending Albuquerque Center
Wed 09:40:30 PM 33.8992 -112.3147 117° Southeast 152 175 6,400 -341 Descending Albuquerque Center
Wed 09:41:32 PM 33.8767 -112.2719 122° Southeast 152 175 6,000 -390 Descending Albuquerque Center
Wed 09:42:33 PM 33.8558 -112.2261 119° Southeast 156 180 5,600 -439 Descending Albuquerque Center
Wed 09:43:35 PM 33.8347 -112.1803 119° Southeast 158 182 5,100 -439 Descending Albuquerque Center
Wed 09:44:36 PM 33.8144 -112.1339 118° Southeast 158 182 4,700 -443 Descending Albuquerque Center
Wed 09:45:37 PM 33.7936 -112.0869 118° Southeast 160 184 4,200 -488 Descending Albuquerque Center
Wed 09:46:39 PM 33.7683 -112.0300 118° Southeast 163 188 3,700 -390 Descending Albuquerque Center
Wed 09:47:40 PM 33.7461 -111.9875 122° Southeast 153 176 3,400 -195 Descending Albuquerque Center
Wed 09:48:42 PM 33.7247 -111.9467 122° Southeast 147 169 3,300 -98 Descending Albuquerque Center
Wed 09:49:43 PM 33.7058 -111.9111 123° Southeast 130 150 3,200 -195 Descending Albuquerque Center
Wed 09:50:45 PM 33.6850 -111.8836 132° Southeast 120 138 2,900 -341 Descending Albuquerque Center
Wed 09:51:46 PM 33.6633 -111.8689 151° Southeast 106 122 2,500 -492 Descending Albuquerque Center
Wed 09:52:47 PM 33.6431 -111.8881 218° Southwest 97 112 1,900 -488 Descending Albuquerque Center
Wed 09:53:49 PM 33.6267 -111.9072 224° Southwest 90 104 1,500 -387 Descending Albuquerque Center
Wed 09:55:00 PM 33.6167 -111.9000 126° Southeast  Level FlightAware Approximate
Wed 10:02:00 PM 33.6229 -111.9105 126° Southeast  Level Estimated
Wed 10:03:00 PM 33.6229 -111.9105 126° Southeast  Level Estimated
Wed 10:04:00 PM 33.6229 -111.9105 126° Southeast  Level Estimated
Wed 10:05:00 PM 33.6229 -111.9105 126° Southeast  Level Estimated
Wed 10:06:00 PM 33.6229 -111.9105 126° Southeast  Level Estimated
Wed 10:07:00 PM 33.6229 -111.9105 126° Southeast  Level Estimated
Wed 10:08:00 PM 33.6229 -111.9105 126° Southeast  Level Estimated

Login

Don't have an account? Register now (free) for customized features, flight alerts, and more!